createdAt,value
2022-08-26T00:00:54.859Z,72.61
2022-08-26T00:01:54.902Z,72.61
2022-08-26T00:02:54.826Z,72.61
2022-08-26T00:03:54.926Z,72.50
2022-08-26T00:04:54.815Z,72.71
2022-08-26T00:05:54.808Z,72.61
2022-08-26T00:06:54.811Z,72.61
2022-08-26T00:07:54.789Z,72.81
2022-08-26T00:08:54.793Z,72.50
2022-08-26T00:09:55.299Z,72.50
2022-08-26T00:10:54.761Z,72.61
2022-08-26T00:11:54.773Z,72.71
2022-08-26T00:12:54.742Z,72.71
2022-08-26T00:13:54.757Z,72.81
2022-08-26T00:14:54.743Z,72.81
2022-08-26T00:15:54.748Z,73.00
2022-08-26T00:16:55.193Z,72.91
2022-08-26T00:17:54.717Z,73.00
2022-08-26T00:18:54.693Z,73.00
2022-08-26T00:19:54.693Z,73.00
2022-08-26T00:20:54.687Z,73.21
2022-08-26T00:21:54.685Z,73.14
2022-08-26T00:22:54.677Z,73.04
2022-08-26T00:23:54.655Z,72.94
2022-08-26T00:24:54.651Z,73.24
2022-08-26T00:25:54.657Z,73.44
2022-08-26T00:26:54.640Z,73.04
2022-08-26T00:27:54.636Z,73.24
2022-08-26T00:28:54.608Z,73.04
2022-08-26T00:29:54.608Z,73.14
2022-08-26T00:30:54.602Z,73.04
2022-08-26T00:31:54.642Z,73.44
2022-08-26T00:32:54.583Z,73.24
2022-08-26T00:33:54.611Z,73.24
2022-08-26T00:34:54.560Z,73.35
2022-08-26T00:35:54.573Z,73.35
2022-08-26T00:36:54.554Z,72.84
2022-08-26T00:37:54.541Z,73.35
2022-08-26T00:38:54.535Z,73.55
2022-08-26T00:39:54.565Z,73.14
2022-08-26T00:40:54.516Z,73.48
2022-08-26T00:41:54.503Z,73.04
2022-08-26T00:42:54.497Z,73.35
2022-08-26T00:43:54.485Z,73.35
2022-08-26T00:44:54.474Z,73.48
2022-08-26T00:45:54.575Z,73.58
2022-08-26T00:46:54.469Z,73.48
2022-08-26T00:47:54.460Z,73.44
2022-08-26T00:48:54.450Z,73.18
2022-08-26T00:49:54.450Z,73.48
2022-08-26T00:50:54.423Z,73.68
2022-08-26T00:51:54.541Z,73.48
2022-08-26T00:52:54.411Z,73.18
2022-08-26T00:53:54.398Z,73.48
2022-08-26T00:54:54.401Z,73.48
2022-08-26T00:55:54.380Z,73.58
2022-08-26T00:56:54.369Z,73.58
2022-08-26T00:57:54.379Z,73.38
2022-08-26T00:58:54.365Z,73.58
2022-08-26T00:59:54.367Z,73.58
2022-08-26T01:00:54.391Z,73.58
2022-08-26T01:01:54.377Z,73.58
2022-08-26T01:02:54.336Z,73.58
2022-08-26T01:03:54.345Z,73.58
2022-08-26T01:04:56.156Z,73.28
2022-08-26T01:05:54.314Z,73.38
2022-08-26T01:06:54.284Z,73.68
2022-08-26T01:07:54.296Z,73.68
2022-08-26T01:08:54.265Z,73.38
2022-08-26T01:09:54.288Z,73.78
2022-08-26T01:10:54.928Z,73.48
2022-08-26T01:11:54.248Z,73.58
2022-08-26T01:12:54.250Z,73.48
2022-08-26T01:13:54.239Z,73.68
2022-08-26T01:14:54.216Z,73.78
2022-08-26T01:15:54.238Z,73.38
2022-08-26T01:16:54.198Z,73.61
2022-08-26T01:17:54.211Z,73.52
2022-08-26T01:18:54.191Z,73.72
2022-08-26T01:19:54.180Z,73.72
2022-08-26T01:20:57.526Z,73.72
2022-08-26T01:21:54.194Z,73.82
2022-08-26T01:22:54.150Z,73.82
2022-08-26T01:23:57.550Z,74.02
2022-08-26T01:24:54.144Z,73.82
2022-08-26T01:25:54.133Z,73.92
2022-08-26T01:26:54.125Z,73.82
2022-08-26T01:27:54.146Z,73.72
2022-08-26T01:28:54.105Z,73.82
2022-08-26T01:29:54.106Z,74.02
2022-08-26T01:30:54.096Z,73.92
2022-08-26T01:31:54.117Z,74.02
2022-08-26T01:32:54.077Z,74.12
2022-08-26T01:33:54.208Z,74.12
2022-08-26T01:34:54.045Z,74.12
2022-08-26T01:35:54.044Z,74.22
2022-08-26T01:36:54.039Z,74.22
2022-08-26T01:37:54.040Z,74.22
2022-08-26T01:38:54.055Z,74.12
2022-08-26T01:39:54.066Z,74.12
2022-08-26T01:40:54.519Z,74.12
2022-08-26T01:41:53.988Z,74.22
2022-08-26T01:42:54.001Z,74.12
2022-08-26T01:43:53.992Z,74.02
2022-08-26T01:44:54.031Z,73.92
2022-08-26T01:45:54.062Z,74.22
2022-08-26T01:46:53.963Z,74.12
2022-08-26T01:47:57.132Z,73.92
2022-08-26T01:48:54.526Z,74.12
2022-08-26T01:49:53.933Z,74.12
2022-08-26T01:50:53.912Z,74.22
2022-08-26T01:51:53.924Z,74.02
2022-08-26T01:52:54.504Z,74.12
2022-08-26T01:53:53.882Z,74.12
2022-08-26T01:54:53.886Z,73.82
2022-08-26T01:55:53.867Z,73.92
2022-08-26T01:56:53.863Z,74.12
2022-08-26T01:57:53.879Z,73.82
2022-08-26T01:58:53.844Z,73.72
2022-08-26T01:59:53.849Z,73.92
2022-08-26T02:00:53.877Z,73.82
2022-08-26T02:01:53.824Z,73.72
2022-08-26T02:02:53.816Z,73.61
2022-08-26T02:03:53.832Z,73.65
2022-08-26T02:04:53.820Z,73.75
2022-08-26T02:05:53.778Z,73.85
2022-08-26T02:06:53.778Z,73.65
2022-08-26T02:07:53.772Z,73.85
2022-08-26T02:08:53.773Z,73.85
2022-08-26T02:09:53.768Z,73.65
2022-08-26T02:10:55.020Z,73.95
2022-08-26T02:11:53.744Z,73.75
2022-08-26T02:12:53.730Z,74.05
2022-08-26T02:13:53.729Z,73.95
2022-08-26T02:14:53.786Z,73.65
2022-08-26T02:15:54.047Z,73.95
2022-08-26T02:16:53.692Z,74.05
2022-08-26T02:17:53.682Z,73.95
2022-08-26T02:18:53.683Z,73.85
2022-08-26T02:19:53.662Z,73.75
2022-08-26T02:20:53.675Z,73.85
2022-08-26T02:21:53.663Z,74.15
2022-08-26T02:22:53.659Z,74.26
2022-08-26T02:23:55.971Z,74.26
2022-08-26T02:24:53.625Z,74.15
2022-08-26T02:25:53.615Z,74.15
2022-08-26T02:26:53.619Z,74.15
2022-08-26T02:27:53.616Z,74.05
2022-08-26T02:28:53.587Z,74.05
2022-08-26T02:29:53.590Z,73.88
2022-08-26T02:30:55.528Z,74.05
2022-08-26T02:31:53.600Z,74.08
2022-08-26T02:32:53.561Z,73.79
2022-08-26T02:33:53.745Z,74.19
2022-08-26T02:34:53.557Z,74.29
2022-08-26T02:35:53.543Z,74.49
2022-08-26T02:36:53.522Z,74.90
2022-08-26T02:37:53.524Z,74.69
2022-08-26T02:38:53.522Z,74.69
2022-08-26T02:39:53.549Z,74.49
2022-08-26T02:40:53.506Z,74.49
2022-08-26T02:41:53.476Z,74.29
2022-08-26T02:42:55.965Z,74.19
2022-08-26T02:43:53.466Z,74.49
2022-08-26T02:44:53.466Z,74.39
2022-08-26T02:45:53.465Z,74.39
2022-08-26T02:46:54.167Z,74.49
2022-08-26T02:47:53.425Z,74.39
2022-08-26T02:48:53.437Z,74.39
2022-08-26T02:49:53.420Z,74.19
2022-08-26T02:50:53.419Z,74.39
2022-08-26T02:51:53.398Z,74.49
2022-08-26T02:52:53.386Z,74.49
2022-08-26T02:53:53.390Z,74.29
2022-08-26T02:54:53.382Z,74.08
2022-08-26T02:55:53.373Z,74.39
2022-08-26T02:56:53.361Z,74.29
2022-08-26T02:57:53.346Z,74.39
2022-08-26T02:58:53.398Z,74.49
2022-08-26T02:59:53.333Z,74.59
2022-08-26T03:00:53.806Z,74.29
2022-08-26T03:01:56.119Z,74.59
2022-08-26T03:02:53.304Z,74.59
2022-08-26T03:03:53.291Z,74.49
2022-08-26T03:04:57.458Z,74.49
2022-08-26T03:05:53.261Z,74.59
2022-08-26T03:06:53.275Z,74.49
2022-08-26T03:07:53.266Z,74.39
2022-08-26T03:08:53.257Z,74.08
2022-08-26T03:09:53.246Z,74.59
2022-08-26T03:10:53.225Z,74.59
2022-08-26T03:11:53.214Z,74.39
2022-08-26T03:12:53.224Z,74.49
2022-08-26T03:13:53.209Z,74.59
2022-08-26T03:14:53.186Z,74.52
2022-08-26T03:15:53.302Z,74.49
2022-08-26T03:16:53.180Z,74.63
2022-08-26T03:17:53.156Z,74.69
2022-08-26T03:18:53.170Z,74.69
2022-08-26T03:19:57.018Z,74.69
2022-08-26T03:20:53.151Z,74.59
2022-08-26T03:21:53.145Z,74.59
2022-08-26T03:22:53.118Z,74.69
2022-08-26T03:23:53.109Z,74.39
2022-08-26T03:24:53.099Z,74.49
2022-08-26T03:25:53.089Z,74.69
2022-08-26T03:26:53.271Z,74.59
2022-08-26T03:27:53.080Z,74.49
2022-08-26T03:28:53.085Z,74.52
2022-08-26T03:29:53.050Z,74.63
2022-08-26T03:30:53.068Z,74.73
2022-08-26T03:31:53.033Z,74.52
2022-08-26T03:32:53.035Z,74.83
2022-08-26T03:33:55.600Z,74.73
2022-08-26T03:34:53.013Z,74.73
2022-08-26T03:35:53.008Z,74.73
2022-08-26T03:36:52.995Z,74.52
2022-08-26T03:37:53.000Z,74.63
2022-08-26T03:38:52.976Z,74.43
2022-08-26T03:39:53.135Z,74.43
2022-08-26T03:40:52.969Z,74.43
2022-08-26T03:41:52.946Z,74.63
2022-08-26T03:42:52.947Z,74.63
2022-08-26T03:43:52.941Z,74.52
2022-08-26T03:44:52.927Z,74.63
2022-08-26T03:45:52.937Z,74.22
2022-08-26T03:46:52.943Z,74.52
2022-08-26T03:47:53.053Z,74.73
2022-08-26T03:48:52.903Z,74.83
2022-08-26T03:49:52.879Z,74.73
2022-08-26T03:50:52.870Z,74.32
2022-08-26T03:51:52.894Z,74.73
2022-08-26T03:52:52.873Z,74.83
2022-08-26T03:53:52.841Z,74.83
2022-08-26T03:54:52.854Z,74.73
2022-08-26T03:55:52.822Z,74.83
2022-08-26T03:56:52.841Z,74.63
2022-08-26T03:57:52.843Z,74.73
2022-08-26T03:58:52.823Z,74.63
2022-08-26T03:59:52.807Z,74.63
2022-08-26T04:00:55.641Z,74.83
2022-08-26T04:01:52.819Z,74.83
2022-08-26T04:02:53.288Z,74.93
2022-08-26T04:03:52.764Z,74.93
2022-08-26T04:04:52.768Z,74.83
2022-08-26T04:05:52.749Z,74.87
2022-08-26T04:06:52.735Z,74.87
2022-08-26T04:07:52.716Z,74.87
2022-08-26T04:08:52.716Z,74.96
2022-08-26T04:09:52.720Z,74.96
2022-08-26T04:10:52.715Z,74.96
2022-08-26T04:11:52.701Z,75.07
2022-08-26T04:12:52.699Z,75.07
2022-08-26T04:13:52.670Z,75.03
2022-08-26T04:14:52.667Z,75.03
2022-08-26T04:15:52.793Z,75.03
2022-08-26T04:16:52.664Z,75.03
2022-08-26T04:17:52.632Z,75.03
2022-08-26T04:18:52.631Z,75.13
2022-08-26T04:19:52.621Z,75.13
2022-08-26T04:20:52.611Z,75.13
2022-08-26T04:21:52.632Z,75.13
2022-08-26T04:22:52.592Z,75.03
2022-08-26T04:23:52.582Z,74.83
2022-08-26T04:24:52.579Z,75.13
2022-08-26T04:25:52.577Z,75.13
2022-08-26T04:26:52.584Z,75.27
2022-08-26T04:27:52.568Z,75.13
2022-08-26T04:28:52.556Z,75.13
2022-08-26T04:29:55.314Z,75.03
2022-08-26T04:30:52.582Z,75.16
2022-08-26T04:31:55.641Z,75.16
2022-08-26T04:32:52.506Z,75.16
2022-08-26T04:33:52.507Z,75.07
2022-08-26T04:34:52.487Z,74.76
2022-08-26T04:35:52.491Z,75.07
2022-08-26T04:36:52.481Z,75.27
2022-08-26T04:37:52.487Z,75.16
2022-08-26T04:38:52.465Z,75.16
2022-08-26T04:39:52.700Z,75.07
2022-08-26T04:40:52.430Z,75.16
2022-08-26T04:41:52.419Z,75.27
2022-08-26T04:42:52.434Z,75.27
2022-08-26T04:43:52.404Z,74.96
2022-08-26T04:44:52.415Z,75.16
2022-08-26T04:45:52.416Z,74.87
2022-08-26T04:46:52.475Z,74.96
2022-08-26T04:47:52.372Z,75.27
2022-08-26T04:48:52.362Z,75.37
2022-08-26T04:49:52.353Z,75.37
2022-08-26T04:50:52.364Z,74.96
2022-08-26T04:51:52.363Z,75.27
2022-08-26T04:52:52.348Z,75.37
2022-08-26T04:53:52.328Z,75.27
2022-08-26T04:54:52.314Z,75.27
2022-08-26T04:55:52.472Z,75.37
2022-08-26T04:56:52.309Z,75.37
2022-08-26T04:57:52.307Z,75.27
2022-08-26T04:58:52.298Z,75.37
2022-08-26T04:59:52.281Z,75.16
2022-08-26T05:00:52.267Z,75.37
2022-08-26T05:01:52.348Z,75.47
2022-08-26T05:02:52.249Z,75.47
2022-08-26T05:03:52.299Z,75.47
2022-08-26T05:04:52.242Z,75.57
2022-08-26T05:05:52.218Z,75.37
2022-08-26T05:06:53.423Z,75.37
2022-08-26T05:07:52.214Z,75.47
2022-08-26T05:08:52.204Z,75.16
2022-08-26T05:09:52.213Z,75.47
2022-08-26T05:10:52.186Z,75.57
2022-08-26T05:11:52.509Z,75.67
2022-08-26T05:12:52.160Z,75.47
2022-08-26T05:13:52.143Z,75.27
2022-08-26T05:14:52.143Z,75.67
2022-08-26T05:15:52.162Z,75.57
2022-08-26T05:16:52.137Z,75.47
2022-08-26T05:17:52.121Z,75.67
2022-08-26T05:18:52.105Z,75.98
2022-08-26T05:19:52.093Z,75.87
2022-08-26T05:20:54.570Z,75.47
2022-08-26T05:21:52.110Z,75.77
2022-08-26T05:22:52.080Z,75.87
2022-08-26T05:23:52.057Z,75.87
2022-08-26T05:24:52.047Z,75.87
2022-08-26T05:25:54.770Z,75.84
2022-08-26T05:26:52.051Z,75.84
2022-08-26T05:27:52.053Z,75.54
2022-08-26T05:28:54.948Z,75.87
2022-08-26T05:29:54.544Z,76.07
2022-08-26T05:30:52.021Z,75.98
2022-08-26T05:31:52.007Z,76.04
2022-08-26T05:32:55.252Z,75.94
2022-08-26T05:33:51.990Z,76.04
2022-08-26T05:34:51.971Z,76.24
2022-08-26T05:35:51.951Z,76.04
2022-08-26T05:36:51.952Z,76.14
2022-08-26T05:37:51.932Z,76.24
2022-08-26T05:38:51.932Z,76.24
2022-08-26T05:39:52.031Z,76.14
2022-08-26T05:40:52.797Z,76.14
2022-08-26T05:41:51.918Z,76.24
2022-08-26T05:42:51.909Z,76.14
2022-08-26T05:43:51.885Z,76.24
2022-08-26T05:44:55.563Z,76.24
2022-08-26T05:45:52.059Z,76.34
2022-08-26T05:46:51.991Z,76.44
2022-08-26T05:47:51.869Z,76.34
2022-08-26T05:48:51.860Z,76.34
2022-08-26T05:49:51.916Z,76.10
2022-08-26T05:50:51.827Z,76.44
2022-08-26T05:51:51.829Z,76.40
2022-08-26T05:52:51.818Z,76.40
2022-08-26T05:53:54.895Z,76.40
2022-08-26T05:54:51.798Z,76.20
2022-08-26T05:55:51.795Z,76.10
2022-08-26T05:56:51.804Z,76.00
2022-08-26T05:57:51.802Z,76.10
2022-08-26T05:58:51.762Z,76.40
2022-08-26T05:59:51.754Z,76.61
2022-08-26T06:00:51.742Z,76.51
2022-08-26T06:01:51.792Z,76.71
2022-08-26T06:02:51.753Z,76.61
2022-08-26T06:03:51.762Z,76.67
2022-08-26T06:04:51.856Z,76.47
2022-08-26T06:05:51.716Z,76.57
2022-08-26T06:06:51.707Z,76.67
2022-08-26T06:07:51.697Z,76.67
2022-08-26T06:08:51.688Z,76.37
2022-08-26T06:09:51.677Z,76.64
2022-08-26T06:10:51.982Z,76.54
2022-08-26T06:11:51.655Z,76.54
2022-08-26T06:12:51.650Z,76.43
2022-08-26T06:13:51.636Z,76.54
2022-08-26T06:14:51.637Z,76.50
2022-08-26T06:15:51.701Z,76.50
2022-08-26T06:16:51.607Z,76.50
2022-08-26T06:17:51.611Z,76.40
2022-08-26T06:18:51.596Z,76.30
2022-08-26T06:19:51.601Z,76.30
2022-08-26T06:20:56.954Z,76.26
2022-08-26T06:21:54.672Z,76.36
2022-08-26T06:22:51.558Z,76.26
2022-08-26T06:23:51.551Z,76.26
2022-08-26T06:24:51.554Z,76.26
2022-08-26T06:25:51.531Z,76.26
2022-08-26T06:26:51.537Z,76.26
2022-08-26T06:27:51.536Z,76.23
2022-08-26T06:28:51.503Z,76.23
2022-08-26T06:29:51.516Z,76.12
2022-08-26T06:30:51.530Z,76.12
2022-08-26T06:31:51.498Z,76.73
2022-08-26T06:32:51.473Z,76.32
2022-08-26T06:33:51.497Z,76.32
2022-08-26T06:34:51.476Z,76.43
2022-08-26T06:35:51.454Z,76.23
2022-08-26T06:36:53.115Z,76.12
2022-08-26T06:37:51.443Z,76.23
2022-08-26T06:38:51.430Z,75.89
2022-08-26T06:39:51.493Z,75.89
2022-08-26T06:40:51.406Z,75.89
2022-08-26T06:41:51.397Z,75.79
2022-08-26T06:42:51.401Z,75.89
2022-08-26T06:43:51.391Z,75.79
2022-08-26T06:44:51.369Z,75.59
2022-08-26T06:45:51.391Z,75.68
2022-08-26T06:46:51.525Z,75.38
2022-08-26T06:47:51.365Z,75.38
2022-08-26T06:48:51.330Z,75.59
2022-08-26T06:49:51.345Z,75.68
2022-08-26T06:50:51.334Z,75.68
2022-08-26T06:51:51.343Z,75.75
2022-08-26T06:52:51.315Z,75.65
2022-08-26T06:53:51.306Z,75.65
2022-08-26T06:54:51.296Z,75.55
2022-08-26T06:55:51.876Z,75.35
2022-08-26T06:56:51.263Z,75.25
2022-08-26T06:57:51.274Z,75.35
2022-08-26T06:58:51.265Z,75.45
2022-08-26T06:59:51.348Z,75.31
2022-08-26T07:00:51.235Z,75.42
2022-08-26T07:01:51.283Z,75.51
2022-08-26T07:02:51.239Z,75.62
2022-08-26T07:03:51.226Z,75.51
2022-08-26T07:04:51.350Z,75.38
2022-08-26T07:05:51.211Z,75.27
2022-08-26T07:06:52.617Z,75.27
2022-08-26T07:07:51.192Z,75.04
2022-08-26T07:08:51.181Z,74.84
2022-08-26T07:09:52.476Z,74.84
2022-08-26T07:10:51.178Z,74.84
2022-08-26T07:11:51.150Z,74.44
2022-08-26T07:12:51.130Z,74.40
2022-08-26T07:13:51.131Z,74.30
2022-08-26T07:14:51.111Z,74.20
2022-08-26T07:15:51.158Z,74.27
2022-08-26T07:16:51.114Z,73.86
2022-08-26T07:17:51.112Z,73.77
2022-08-26T07:18:51.082Z,74.07
2022-08-26T07:19:51.073Z,74.33
2022-08-26T07:20:51.064Z,74.13
2022-08-26T07:21:51.073Z,73.93
2022-08-26T07:22:51.058Z,74.13
2022-08-26T07:23:51.058Z,74.03
2022-08-26T07:24:51.039Z,74.33
2022-08-26T07:25:51.026Z,74.10
2022-08-26T07:26:51.016Z,73.70
2022-08-26T07:27:54.461Z,73.39
2022-08-26T07:28:50.998Z,73.39
2022-08-26T07:29:50.997Z,73.19
2022-08-26T07:30:51.042Z,73.39
2022-08-26T07:31:50.978Z,73.10
2022-08-26T07:32:50.973Z,72.69
2022-08-26T07:33:50.982Z,72.80
2022-08-26T07:34:50.949Z,73.10
2022-08-26T07:35:50.940Z,72.46
2022-08-26T07:36:50.943Z,72.96
2022-08-26T07:37:55.086Z,72.66
2022-08-26T07:38:50.924Z,72.76
2022-08-26T07:39:51.009Z,72.66
2022-08-26T07:40:50.892Z,72.26
2022-08-26T07:41:50.892Z,72.56
2022-08-26T07:42:50.886Z,72.56
2022-08-26T07:43:50.873Z,72.16
2022-08-26T07:44:50.858Z,72.63
2022-08-26T07:45:50.930Z,73.03
2022-08-26T07:46:52.308Z,72.72
2022-08-26T07:47:50.850Z,72.42
2022-08-26T07:48:50.839Z,72.33
2022-08-26T07:49:52.696Z,72.42
2022-08-26T07:50:50.911Z,72.03
2022-08-26T07:51:50.818Z,71.73
2022-08-26T07:52:50.807Z,71.73
2022-08-26T07:53:52.847Z,71.73
2022-08-26T07:54:50.770Z,71.92
2022-08-26T07:55:50.770Z,72.19
2022-08-26T07:56:50.772Z,72.39
2022-08-26T07:57:50.773Z,72.19
2022-08-26T07:58:51.546Z,72.19
2022-08-26T07:59:50.751Z,72.39
2022-08-26T08:00:50.734Z,72.06
2022-08-26T08:01:50.780Z,71.56
2022-08-26T08:02:50.723Z,71.56
2022-08-26T08:03:50.721Z,71.46
2022-08-26T08:04:50.762Z,71.86
2022-08-26T08:05:50.683Z,72.06
2022-08-26T08:06:50.686Z,72.16
2022-08-26T08:07:53.572Z,72.16
2022-08-26T08:08:50.841Z,72.36
2022-08-26T08:09:50.678Z,72.45
2022-08-26T08:10:50.648Z,72.66
2022-08-26T08:11:51.286Z,72.66
2022-08-26T08:12:50.621Z,72.76
2022-08-26T08:13:56.112Z,72.66
2022-08-26T08:14:50.605Z,72.52
2022-08-26T08:15:50.607Z,72.62
2022-08-26T08:16:51.260Z,72.42
2022-08-26T08:17:50.621Z,72.72
2022-08-26T08:18:50.568Z,72.62
2022-08-26T08:19:50.579Z,72.19
2022-08-26T08:20:59.248Z,71.99
2022-08-26T08:21:50.582Z,71.49
2022-08-26T08:22:50.530Z,71.59
2022-08-26T08:23:50.531Z,71.39
2022-08-26T08:24:53.081Z,70.99
2022-08-26T08:25:50.525Z,71.19
2022-08-26T08:26:50.512Z,71.59
2022-08-26T08:27:50.512Z,71.89
2022-08-26T08:28:50.492Z,71.75
2022-08-26T08:29:50.496Z,71.95
2022-08-26T08:30:50.564Z,71.66
2022-08-26T08:31:57.025Z,71.45
2022-08-26T08:32:50.455Z,71.52
2022-08-26T08:33:50.466Z,70.92
2022-08-26T08:34:50.436Z,71.02
2022-08-26T08:35:50.439Z,71.02
2022-08-26T08:36:50.418Z,70.72
2022-08-26T08:37:50.407Z,71.19
2022-08-26T08:38:50.410Z,70.59
2022-08-26T08:39:50.481Z,70.49
2022-08-26T08:40:50.379Z,70.49
2022-08-26T08:41:50.391Z,71.19
2022-08-26T08:42:50.359Z,70.56
2022-08-26T08:43:50.373Z,70.56
2022-08-26T08:44:52.374Z,70.86
2022-08-26T08:45:50.390Z,71.05
2022-08-26T08:46:50.332Z,71.12
2022-08-26T08:47:50.334Z,71.02
2022-08-26T08:48:50.312Z,70.42
2022-08-26T08:49:50.324Z,70.12
2022-08-26T08:50:50.293Z,70.62
2022-08-26T08:51:50.312Z,70.59
2022-08-26T08:52:50.283Z,68.60
2022-08-26T08:53:50.290Z,69.89
2022-08-26T08:54:50.268Z,68.00
2022-08-26T08:55:50.268Z,68.30
2022-08-26T08:56:50.247Z,68.90
2022-08-26T08:57:50.278Z,69.09
2022-08-26T08:58:50.226Z,69.29
2022-08-26T08:59:50.227Z,69.49
2022-08-26T09:00:50.220Z,69.56
2022-08-26T09:01:52.530Z,69.85
2022-08-26T09:02:50.211Z,69.76
2022-08-26T09:03:50.222Z,69.85
2022-08-26T09:04:50.179Z,70.36
2022-08-26T09:05:50.170Z,70.22
2022-08-26T09:06:50.205Z,70.62
2022-08-26T09:07:50.174Z,70.42
2022-08-26T09:08:50.485Z,70.59
2022-08-26T09:09:50.255Z,69.89
2022-08-26T09:10:50.132Z,69.99
2022-08-26T09:11:50.135Z,68.60
2022-08-26T09:12:50.114Z,69.39
2022-08-26T09:13:50.122Z,69.29
2022-08-26T09:14:51.067Z,68.00
2022-08-26T09:15:50.105Z,67.90
2022-08-26T09:16:50.114Z,68.40
2022-08-26T09:17:50.077Z,68.60
2022-08-26T09:18:50.065Z,68.50
2022-08-26T09:19:50.080Z,68.60
2022-08-26T09:20:50.054Z,68.20
2022-08-26T09:21:53.480Z,68.50
2022-08-26T09:22:50.039Z,68.80
2022-08-26T09:23:50.041Z,69.03
2022-08-26T09:24:50.032Z,69.32
2022-08-26T09:25:50.082Z,69.53
2022-08-26T09:26:50.015Z,69.53
2022-08-26T09:27:50.437Z,69.73
2022-08-26T09:28:49.990Z,69.73
2022-08-26T09:29:50.416Z,69.92
2022-08-26T09:30:50.073Z,69.92
2022-08-26T09:31:49.984Z,70.22
2022-08-26T09:32:55.889Z,70.32
2022-08-26T09:33:49.974Z,70.03
2022-08-26T09:34:49.944Z,70.12
2022-08-26T09:35:49.934Z,70.32
2022-08-26T09:36:49.925Z,70.42
2022-08-26T09:38:49.905Z,70.52
2022-08-26T09:39:49.977Z,70.62
2022-08-26T09:40:49.895Z,70.42
2022-08-26T09:41:49.900Z,70.29
2022-08-26T09:42:49.888Z,70.29
2022-08-26T09:43:49.882Z,70.29
2022-08-26T09:44:49.871Z,70.39
2022-08-26T09:45:50.851Z,70.48
2022-08-26T09:46:49.842Z,70.48
2022-08-26T09:47:49.840Z,70.09
2022-08-26T09:48:51.782Z,70.09
2022-08-26T09:49:49.834Z,70.29
2022-08-26T09:50:49.830Z,70.39
2022-08-26T09:51:50.068Z,70.48
2022-08-26T09:52:49.791Z,70.59
2022-08-26T09:53:49.798Z,70.59
2022-08-26T09:54:49.786Z,70.78
2022-08-26T09:55:49.786Z,70.68
2022-08-26T09:56:49.763Z,70.55
2022-08-26T09:57:49.773Z,70.15
2022-08-26T09:58:49.757Z,69.76
2022-08-26T09:59:49.755Z,70.06
2022-08-26T10:00:49.768Z,69.96
2022-08-26T10:01:49.899Z,70.06
2022-08-26T10:02:50.137Z,70.15
2022-08-26T10:03:49.830Z,69.06
2022-08-26T10:04:49.710Z,69.56
2022-08-26T10:05:49.704Z,69.76
2022-08-26T10:06:49.692Z,70.06
2022-08-26T10:07:49.679Z,70.06
2022-08-26T10:08:49.660Z,70.15
2022-08-26T10:09:49.694Z,70.15
2022-08-26T10:10:53.100Z,70.36
2022-08-26T10:11:49.642Z,69.96
2022-08-26T10:12:49.645Z,70.06
2022-08-26T10:13:49.621Z,70.15
2022-08-26T10:14:49.640Z,70.19
2022-08-26T10:15:50.839Z,69.69
2022-08-26T10:16:49.685Z,69.99
2022-08-26T10:17:49.604Z,70.19
2022-08-26T10:18:49.598Z,70.29
2022-08-26T10:19:56.625Z,70.48
2022-08-26T10:20:49.589Z,70.55
2022-08-26T10:21:49.588Z,70.15
2022-08-26T10:22:49.569Z,70.06
2022-08-26T10:23:49.559Z,70.15
2022-08-26T10:24:51.939Z,70.25
2022-08-26T10:25:49.528Z,70.15
2022-08-26T10:26:49.539Z,70.06
2022-08-26T10:27:53.439Z,70.25
2022-08-26T10:28:49.522Z,70.25
2022-08-26T10:29:49.489Z,69.96
2022-08-26T10:30:49.491Z,70.06
2022-08-26T10:31:51.414Z,70.25
2022-08-26T10:32:49.480Z,70.36
2022-08-26T10:33:49.484Z,70.45
2022-08-26T10:34:49.461Z,70.55
2022-08-26T10:35:49.442Z,70.36
2022-08-26T10:37:10.573Z,70.45
2022-08-26T10:37:49.430Z,70.45
2022-08-26T10:38:49.422Z,70.52
2022-08-26T10:39:49.425Z,70.12
2022-08-26T10:40:49.473Z,70.12
2022-08-26T10:41:49.395Z,69.62
2022-08-26T10:42:49.425Z,69.03
2022-08-26T10:43:49.375Z,69.03
2022-08-26T10:44:49.376Z,69.13
2022-08-26T10:45:49.403Z,69.03
2022-08-26T10:46:49.370Z,69.23
2022-08-26T10:47:49.347Z,68.73
2022-08-26T10:48:49.337Z,69.23
2022-08-26T10:49:49.343Z,68.73
2022-08-26T10:50:49.329Z,68.63
2022-08-26T10:51:49.339Z,68.43
2022-08-26T10:52:49.323Z,68.53
2022-08-26T10:53:51.549Z,68.23
2022-08-26T10:54:49.292Z,68.33
2022-08-26T10:55:49.283Z,68.53
2022-08-26T10:56:49.286Z,68.73
2022-08-26T10:57:49.296Z,68.40
2022-08-26T10:58:49.262Z,68.20
2022-08-26T10:59:49.256Z,68.99
2022-08-26T11:00:49.348Z,67.80
2022-08-26T11:01:51.034Z,68.40
2022-08-26T11:02:49.228Z,68.70
2022-08-26T11:03:49.262Z,68.70
2022-08-26T11:04:49.236Z,69.09
2022-08-26T11:05:49.197Z,69.09
2022-08-26T11:06:49.197Z,68.90
2022-08-26T11:07:49.198Z,69.20
2022-08-26T11:08:49.190Z,68.30
2022-08-26T11:09:49.692Z,68.70
2022-08-26T11:10:49.167Z,68.60
2022-08-26T11:11:49.154Z,68.80
2022-08-26T11:12:49.589Z,68.80
2022-08-26T11:13:49.138Z,68.70
2022-08-26T11:14:58.882Z,68.70
2022-08-26T11:15:49.142Z,68.40
2022-08-26T11:16:49.170Z,68.20
2022-08-26T11:17:49.116Z,67.90
2022-08-26T11:18:51.317Z,68.30
2022-08-26T11:20:00.700Z,66.81
2022-08-26T11:20:49.083Z,66.81
2022-08-26T11:21:50.621Z,67.60
2022-08-26T11:22:49.064Z,67.90
2022-08-26T11:23:50.193Z,66.22
2022-08-26T11:24:49.059Z,67.21
2022-08-26T11:25:49.036Z,67.41
2022-08-26T11:26:56.388Z,67.80
2022-08-26T11:27:49.060Z,67.90
2022-08-26T11:28:49.017Z,68.10
2022-08-26T11:29:49.008Z,68.30
2022-08-26T11:30:49.006Z,68.30
2022-08-26T11:31:49.062Z,68.50
2022-08-26T11:32:48.989Z,68.70
2022-08-26T11:33:48.994Z,68.46
2022-08-26T11:34:48.984Z,68.76
2022-08-26T11:35:48.961Z,68.17
2022-08-26T11:36:48.965Z,68.57
2022-08-26T11:37:48.952Z,68.76
2022-08-26T11:38:48.947Z,68.66
2022-08-26T11:39:54.056Z,68.27
2022-08-26T11:40:48.924Z,67.57
2022-08-26T11:41:48.926Z,67.67
2022-08-26T11:42:48.921Z,67.87
2022-08-26T11:43:48.894Z,67.87
2022-08-26T11:44:49.634Z,67.97
2022-08-26T11:45:48.930Z,68.07
2022-08-26T11:46:48.889Z,68.46
2022-08-26T11:47:49.241Z,68.17
2022-08-26T11:48:48.857Z,68.37
2022-08-26T11:49:48.860Z,68.07
2022-08-26T11:50:48.855Z,68.17
2022-08-26T11:51:48.838Z,68.33
2022-08-26T11:52:48.829Z,67.87
2022-08-26T11:53:48.818Z,68.24
2022-08-26T11:54:48.834Z,68.33
2022-08-26T11:55:48.800Z,68.33
2022-08-26T11:56:48.798Z,67.84
2022-08-26T11:57:48.804Z,67.94
2022-08-26T11:58:48.795Z,68.13
2022-08-26T11:59:48.776Z,68.24
2022-08-26T12:00:48.762Z,67.94
2022-08-26T12:01:48.766Z,67.94
2022-08-26T12:02:48.765Z,67.64
2022-08-26T12:03:48.904Z,67.84
2022-08-26T12:04:48.784Z,67.74
2022-08-26T12:05:48.723Z,66.75
2022-08-26T12:06:48.719Z,67.34
2022-08-26T12:07:48.704Z,66.75
2022-08-26T12:08:48.718Z,66.85
2022-08-26T12:09:48.730Z,67.24
2022-08-26T12:10:48.700Z,67.27
2022-08-26T12:11:48.688Z,67.08
2022-08-26T12:12:48.682Z,67.18
2022-08-26T12:13:48.672Z,67.38
2022-08-26T12:14:48.664Z,67.77
2022-08-26T12:15:48.669Z,67.64
2022-08-26T12:16:48.699Z,67.64
2022-08-26T12:17:53.409Z,67.64
2022-08-26T12:18:48.622Z,67.54
2022-08-26T12:19:48.625Z,67.24
2022-08-26T12:20:48.676Z,66.45
2022-08-26T12:21:48.613Z,66.94
2022-08-26T12:22:48.619Z,67.05
2022-08-26T12:23:48.583Z,67.24
2022-08-26T12:24:48.587Z,67.84
2022-08-26T12:25:48.564Z,68.13
2022-08-26T12:26:48.577Z,68.04
2022-08-26T12:27:53.064Z,68.04
2022-08-26T12:28:48.561Z,67.94
2022-08-26T12:29:48.665Z,67.54
2022-08-26T12:30:48.528Z,67.84
2022-08-26T12:31:48.593Z,67.74
2022-08-26T12:32:57.311Z,67.64
2022-08-26T12:33:48.532Z,67.84
2022-08-26T12:34:48.513Z,67.41
2022-08-26T12:35:50.359Z,67.11
2022-08-26T12:36:48.514Z,67.21
2022-08-26T12:37:48.470Z,66.75
2022-08-26T12:38:48.483Z,65.86
2022-08-26T12:39:48.518Z,66.35
2022-08-26T12:40:48.465Z,66.45
2022-08-26T12:41:48.458Z,66.55
2022-08-26T12:42:48.445Z,66.75
2022-08-26T12:43:48.437Z,66.65
2022-08-26T12:44:54.302Z,66.45
2022-08-26T12:45:48.432Z,66.15
2022-08-26T12:46:49.815Z,66.25
2022-08-26T12:47:48.413Z,66.35
2022-08-26T12:48:48.387Z,66.45
2022-08-26T12:49:48.377Z,66.25
2022-08-26T12:50:48.387Z,65.56
2022-08-26T12:51:48.381Z,65.86
2022-08-26T12:52:48.357Z,65.19
2022-08-26T12:53:48.345Z,64.99